﻿<?xml version="1.0" encoding="utf-8"?><gpx creator="Garmin Desktop App" version="1.1" xsi:schemaLocation="http://www.topografix.com/GPX/1/1 http://www.topografix.com/GPX/1/1/gpx.xsd http://www.garmin.com/xmlschemas/WaypointExtension/v1 http://www8.garmin.com/xmlschemas/WaypointExtensionv1.xsd http://www.garmin.com/xmlschemas/TrackPointExtension/v1 http://www.garmin.com/xmlschemas/TrackPointExtensionv1.xsd http://www.garmin.com/xmlschemas/GpxExtensions/v3 http://www8.garmin.com/xmlschemas/GpxExtensionsv3.xsd http://www.garmin.com/xmlschemas/ActivityExtension/v1 http://www8.garmin.com/xmlschemas/ActivityExtensionv1.xsd http://www.garmin.com/xmlschemas/AdventuresExtensions/v1 http://www8.garmin.com/xmlschemas/AdventuresExtensionv1.xsd http://www.garmin.com/xmlschemas/PressureExtension/v1 http://www.garmin.com/xmlschemas/PressureExtensionv1.xsd http://www.garmin.com/xmlschemas/TripExtensions/v1 http://www.garmin.com/xmlschemas/TripExtensionsv1.xsd http://www.garmin.com/xmlschemas/TripMetaDataExtensions/v1 http://www.garmin.com/xmlschemas/TripMetaDataExtensionsv1.xsd http://www.garmin.com/xmlschemas/ViaPointTransportationModeExtensions/v1 http://www.garmin.com/xmlschemas/ViaPointTransportationModeExtensionsv1.xsd http://www.garmin.com/xmlschemas/CreationTimeExtension/v1 http://www.garmin.com/xmlschemas/CreationTimeExtensionsv1.xsd http://www.garmin.com/xmlschemas/AccelerationExtension/v1 http://www.garmin.com/xmlschemas/AccelerationExtensionv1.xsd http://www.garmin.com/xmlschemas/PowerExtension/v1 http://www.garmin.com/xmlschemas/PowerExtensionv1.xsd http://www.garmin.com/xmlschemas/VideoExtension/v1 http://www.garmin.com/xmlschemas/VideoExtensionv1.xsd" xmlns="http://www.topografix.com/GPX/1/1" xmlns:xsi="http://www.w3.org/2001/XMLSchema-instance" xmlns:wptx1="http://www.garmin.com/xmlschemas/WaypointExtension/v1" xmlns:gpxtrx="http://www.garmin.com/xmlschemas/GpxExtensions/v3" xmlns:gpxtpx="http://www.garmin.com/xmlschemas/TrackPointExtension/v1" xmlns:gpxx="http://www.garmin.com/xmlschemas/GpxExtensions/v3" xmlns:trp="http://www.garmin.com/xmlschemas/TripExtensions/v1" xmlns:adv="http://www.garmin.com/xmlschemas/AdventuresExtensions/v1" xmlns:prs="http://www.garmin.com/xmlschemas/PressureExtension/v1" xmlns:tmd="http://www.garmin.com/xmlschemas/TripMetaDataExtensions/v1" xmlns:vptm="http://www.garmin.com/xmlschemas/ViaPointTransportationModeExtensions/v1" xmlns:ctx="http://www.garmin.com/xmlschemas/CreationTimeExtension/v1" xmlns:gpxacc="http://www.garmin.com/xmlschemas/AccelerationExtension/v1" xmlns:gpxpx="http://www.garmin.com/xmlschemas/PowerExtension/v1" xmlns:vidx1="http://www.garmin.com/xmlschemas/VideoExtension/v1">

  <metadata>
    <link href="http://www.garmin.com">
      <text>Garmin International</text>
    </link>
    <time>2015-09-06T19:17:29Z</time>
    <bounds maxlat="48.181113973259926" maxlon="11.321617998182774" minlat="48.132183020934463" minlon="11.217209994792938" />
  </metadata>

  <trk>
    <name>Emmering - FFB - Schöngaising Trailrunde 1</name>
    <extensions>
      <gpxx:TrackExtension>
        <gpxx:DisplayColor>DarkGray</gpxx:DisplayColor>
      </gpxx:TrackExtension>
    </extensions>
    <trkseg>
      <trkpt lat="48.181098969653249" lon="11.321617998182774">
        <ele>519</ele>
        <time>2015-09-06T11:37:00Z</time>
      </trkpt>
      <trkpt lat="48.181113973259926" lon="11.321313986554742">
        <ele>519</ele>
        <time>2015-09-06T11:37:06Z</time>
      </trkpt>
      <trkpt lat="48.181068040430546" lon="11.321197981014848">
        <ele>520</ele>
        <time>2015-09-06T11:37:08Z</time>
      </trkpt>
      <trkpt lat="48.180938959121704" lon="11.321150958538055">
        <ele>520</ele>
        <time>2015-09-06T11:37:12Z</time>
      </trkpt>
      <trkpt lat="48.179913014173508" lon="11.321348017081618">
        <ele>524</ele>
        <time>2015-09-06T11:37:43Z</time>
      </trkpt>
      <trkpt lat="48.179710004478693" lon="11.321468967944384">
        <ele>524</ele>
        <time>2015-09-06T11:37:50Z</time>
      </trkpt>
      <trkpt lat="48.179534990340471" lon="11.321361009031534">
        <ele>525</ele>
        <time>2015-09-06T11:37:56Z</time>
      </trkpt>
      <trkpt lat="48.179268026724458" lon="11.321011986583471">
        <ele>528</ele>
        <time>2015-09-06T11:38:06Z</time>
      </trkpt>
      <trkpt lat="48.179301973432302" lon="11.320876032114029">
        <ele>529</ele>
        <time>2015-09-06T11:38:09Z</time>
      </trkpt>
      <trkpt lat="48.179569020867348" lon="11.320329029113054">
        <ele>531</ele>
        <time>2015-09-06T11:38:23Z</time>
      </trkpt>
      <trkpt lat="48.179461983963847" lon="11.32040798664093">
        <ele>532</ele>
        <time>2015-09-06T11:38:26Z</time>
      </trkpt>
      <trkpt lat="48.179398030042648" lon="11.320312013849616">
        <ele>533</ele>
        <time>2015-09-06T11:38:29Z</time>
      </trkpt>
      <trkpt lat="48.179286969825625" lon="11.320456014946103">
        <ele>533</ele>
        <time>2015-09-06T11:38:34Z</time>
      </trkpt>
      <trkpt lat="48.179192002862692" lon="11.320405974984169">
        <ele>534</ele>
        <time>2015-09-06T11:38:37Z</time>
      </trkpt>
      <trkpt lat="48.179081026464701" lon="11.3202990218997">
        <ele>535</ele>
        <time>2015-09-06T11:38:41Z</time>
      </trkpt>
      <trkpt lat="48.178943982347846" lon="11.320023005828261">
        <ele>536</ele>
        <time>2015-09-06T11:38:47Z</time>
      </trkpt>
      <trkpt lat="48.178840968757868" lon="11.319688986986876">
        <ele>538</ele>
        <time>2015-09-06T11:38:55Z</time>
      </trkpt>
      <trkpt lat="48.178921015933156" lon="11.319565018638968">
        <ele>539</ele>
        <time>2015-09-06T11:38:58Z</time>
      </trkpt>
      <trkpt lat="48.178997039794922" lon="11.319681024178863">
        <ele>539</ele>
        <time>2015-09-06T11:39:02Z</time>
      </trkpt>
      <trkpt lat="48.17918797954917" lon="11.32021201774478">
        <ele>536</ele>
        <time>2015-09-06T11:39:14Z</time>
      </trkpt>
      <trkpt lat="48.179169036448002" lon="11.319893002510071">
        <ele>538</ele>
        <time>2015-09-06T11:39:20Z</time>
      </trkpt>
      <trkpt lat="48.179099969565868" lon="11.31969896145165">
        <ele>540</ele>
        <time>2015-09-06T11:39:24Z</time>
      </trkpt>
      <trkpt lat="48.179141962900758" lon="11.319401990622282">
        <ele>542</ele>
        <time>2015-09-06T11:39:31Z</time>
      </trkpt>
      <trkpt lat="48.179184040054679" lon="11.319227982312441">
        <ele>543</ele>
        <time>2015-09-06T11:39:34Z</time>
      </trkpt>
      <trkpt lat="48.17916501313448" lon="11.319055985659361">
        <ele>544</ele>
        <time>2015-09-06T11:39:38Z</time>
      </trkpt>
      <trkpt lat="48.179008020088077" lon="11.31909797899425">
        <ele>543</ele>
        <time>2015-09-06T11:39:43Z</time>
      </trkpt>
      <trkpt lat="48.178771985694766" lon="11.319215996190906">
        <ele>540</ele>
        <time>2015-09-06T11:39:50Z</time>
      </trkpt>
      <trkpt lat="48.178637959063053" lon="11.31909797899425">
        <ele>539</ele>
        <time>2015-09-06T11:39:55Z</time>
      </trkpt>
      <trkpt lat="48.177764983847737" lon="11.316374028101563">
        <ele>541</ele>
        <time>2015-09-06T11:40:55Z</time>
      </trkpt>
      <trkpt lat="48.177700024098158" lon="11.316204965114594">
        <ele>541</ele>
        <time>2015-09-06T11:40:59Z</time>
      </trkpt>
      <trkpt lat="48.177410010248423" lon="11.315411031246185">
        <ele>542</ele>
        <time>2015-09-06T11:41:17Z</time>
      </trkpt>
      <trkpt lat="48.177314959466457" lon="11.314694965258241">
        <ele>543</ele>
        <time>2015-09-06T11:41:32Z</time>
      </trkpt>
      <trkpt lat="48.177073979750276" lon="11.313902959227562">
        <ele>546</ele>
        <time>2015-09-06T11:41:49Z</time>
      </trkpt>
      <trkpt lat="48.177036009728909" lon="11.313686035573483">
        <ele>548</ele>
        <time>2015-09-06T11:41:54Z</time>
      </trkpt>
      <trkpt lat="48.177001979202032" lon="11.313292002305388">
        <ele>552</ele>
        <time>2015-09-06T11:42:02Z</time>
      </trkpt>
      <trkpt lat="48.177043972536922" lon="11.313152024522424">
        <ele>554</ele>
        <time>2015-09-06T11:42:05Z</time>
      </trkpt>
      <trkpt lat="48.177197026088834" lon="11.312785986810923">
        <ele>559</ele>
        <time>2015-09-06T11:42:14Z</time>
      </trkpt>
      <trkpt lat="48.177218986675143" lon="11.312509970739484">
        <ele>562</ele>
        <time>2015-09-06T11:42:19Z</time>
      </trkpt>
      <trkpt lat="48.177363993600011" lon="11.312129013240337">
        <ele>564</ele>
        <time>2015-09-06T11:42:28Z</time>
      </trkpt>
      <trkpt lat="48.177432976663113" lon="11.311956010758877">
        <ele>565</ele>
        <time>2015-09-06T11:42:32Z</time>
      </trkpt>
      <trkpt lat="48.177284030243754" lon="11.311002988368273">
        <ele>564</ele>
        <time>2015-09-06T11:42:52Z</time>
      </trkpt>
      <trkpt lat="48.176684975624084" lon="11.308464026078582">
        <ele>569</ele>
        <time>2015-09-06T11:43:46Z</time>
      </trkpt>
      <trkpt lat="48.176600988954306" lon="11.308388002216816">
        <ele>570</ele>
        <time>2015-09-06T11:43:49Z</time>
      </trkpt>
      <trkpt lat="48.176521025598049" lon="11.308452039957047">
        <ele>570</ele>
        <time>2015-09-06T11:43:51Z</time>
      </trkpt>
      <trkpt lat="48.174793012440205" lon="11.3110619969666">
        <ele>538</ele>
        <time>2015-09-06T11:45:05Z</time>
      </trkpt>
      <trkpt lat="48.17032428458333" lon="11.306616067886353">
        <ele>540</ele>
        <time>2015-09-06T11:47:46Z</time>
      </trkpt>
      <trkpt lat="48.169907033443451" lon="11.305365655571222">
        <ele>539</ele>
        <time>2015-09-06T11:48:14Z</time>
      </trkpt>
      <trkpt lat="48.169269924983382" lon="11.305037504062057">
        <ele>531</ele>
        <time>2015-09-06T11:48:34Z</time>
      </trkpt>
      <trkpt lat="48.16952096298337" lon="11.30472301505506">
        <ele>533</ele>
        <time>2015-09-06T11:48:44Z</time>
      </trkpt>
      <trkpt lat="48.169533032923937" lon="11.304534003138542">
        <ele>533</ele>
        <time>2015-09-06T11:48:48Z</time>
      </trkpt>
      <trkpt lat="48.169678039848804" lon="11.304223034530878">
        <ele>532</ele>
        <time>2015-09-06T11:48:56Z</time>
      </trkpt>
      <trkpt lat="48.169861016795039" lon="11.304053971543908">
        <ele>532</ele>
        <time>2015-09-06T11:49:02Z</time>
      </trkpt>
      <trkpt lat="48.170853015035391" lon="11.304022036492825">
        <ele>538</ele>
        <time>2015-09-06T11:49:32Z</time>
      </trkpt>
      <trkpt lat="48.171119978651404" lon="11.303802011534572">
        <ele>540</ele>
        <time>2015-09-06T11:49:41Z</time>
      </trkpt>
      <trkpt lat="48.172108037397265" lon="11.302484963089228">
        <ele>549</ele>
        <time>2015-09-06T11:50:21Z</time>
      </trkpt>
      <trkpt lat="48.172244997695088" lon="11.301852967590094">
        <ele>556</ele>
        <time>2015-09-06T11:50:34Z</time>
      </trkpt>
      <trkpt lat="48.1723100412637" lon="11.301202028989792">
        <ele>559</ele>
        <time>2015-09-06T11:50:47Z</time>
      </trkpt>
      <trkpt lat="48.172358991578221" lon="11.301055010408163">
        <ele>558</ele>
        <time>2015-09-06T11:50:51Z</time>
      </trkpt>
      <trkpt lat="48.172572981566191" lon="11.300678998231888">
        <ele>558</ele>
        <time>2015-09-06T11:51:01Z</time>
      </trkpt>
      <trkpt lat="48.17274103872478" lon="11.300135012716055">
        <ele>555</ele>
        <time>2015-09-06T11:51:13Z</time>
      </trkpt>
      <trkpt lat="48.172889985144138" lon="11.299959998577833">
        <ele>553</ele>
        <time>2015-09-06T11:51:18Z</time>
      </trkpt>
      <trkpt lat="48.173247976228595" lon="11.299725975841284">
        <ele>551</ele>
        <time>2015-09-06T11:51:30Z</time>
      </trkpt>
      <trkpt lat="48.175228033214808" lon="11.300112968310714">
        <ele>567</ele>
        <time>2015-09-06T11:52:30Z</time>
      </trkpt>
      <trkpt lat="48.175270026549697" lon="11.299482984468341">
        <ele>569</ele>
        <time>2015-09-06T11:52:43Z</time>
      </trkpt>
      <trkpt lat="48.174251960590482" lon="11.296075992286205">
        <ele>576</ele>
        <time>2015-09-06T11:53:58Z</time>
      </trkpt>
      <trkpt lat="48.174266964197159" lon="11.295776003971696">
        <ele>576</ele>
        <time>2015-09-06T11:54:04Z</time>
      </trkpt>
      <trkpt lat="48.174450024962425" lon="11.295236963778734">
        <ele>578</ele>
        <time>2015-09-06T11:54:16Z</time>
      </trkpt>
      <trkpt lat="48.174468968063593" lon="11.29494602791965">
        <ele>578</ele>
        <time>2015-09-06T11:54:22Z</time>
      </trkpt>
      <trkpt lat="48.174194041639566" lon="11.293306024745107">
        <ele>580</ele>
        <time>2015-09-06T11:54:55Z</time>
      </trkpt>
      <trkpt lat="48.174212984740734" lon="11.292614014819264">
        <ele>576</ele>
        <time>2015-09-06T11:55:09Z</time>
      </trkpt>
      <trkpt lat="48.17416001111269" lon="11.292288964614272">
        <ele>574</ele>
        <time>2015-09-06T11:55:16Z</time>
      </trkpt>
      <trkpt lat="48.174022966995835" lon="11.28983398899436">
        <ele>571</ele>
        <time>2015-09-06T11:56:05Z</time>
      </trkpt>
      <trkpt lat="48.173813000321388" lon="11.288791028782725">
        <ele>570</ele>
        <time>2015-09-06T11:56:27Z</time>
      </trkpt>
      <trkpt lat="48.173817023634911" lon="11.28682597540319">
        <ele>565</ele>
        <time>2015-09-06T11:57:07Z</time>
      </trkpt>
      <trkpt lat="48.173476969823241" lon="11.285872031003237">
        <ele>561</ele>
        <time>2015-09-06T11:57:28Z</time>
      </trkpt>
      <trkpt lat="48.173428019508719" lon="11.284869974479079">
        <ele>564</ele>
        <time>2015-09-06T11:57:48Z</time>
      </trkpt>
      <trkpt lat="48.173102969303727" lon="11.283269030973315">
        <ele>568</ele>
        <time>2015-09-06T11:58:22Z</time>
      </trkpt>
      <trkpt lat="48.173096012324095" lon="11.282971976324916">
        <ele>568</ele>
        <time>2015-09-06T11:58:28Z</time>
      </trkpt>
      <trkpt lat="48.172928038984537" lon="11.282495968043804">
        <ele>568</ele>
        <time>2015-09-06T11:58:39Z</time>
      </trkpt>
      <trkpt lat="48.172581028193235" lon="11.28171100281179">
        <ele>569</ele>
        <time>2015-09-06T11:58:58Z</time>
      </trkpt>
      <trkpt lat="48.172292774543166" lon="11.280492357909679">
        <ele>566</ele>
        <time>2015-09-06T11:59:24Z</time>
      </trkpt>
      <trkpt lat="48.171383673325181" lon="11.279279747977853">
        <ele>568</ele>
        <time>2015-09-06T12:00:00Z</time>
      </trkpt>
      <trkpt lat="48.170952005311847" lon="11.275170017033815">
        <ele>574</ele>
        <time>2015-09-06T12:01:24Z</time>
      </trkpt>
      <trkpt lat="48.171016965061426" lon="11.275003971531987">
        <ele>573</ele>
        <time>2015-09-06T12:01:27Z</time>
      </trkpt>
      <trkpt lat="48.171139005571604" lon="11.274811020120978">
        <ele>572</ele>
        <time>2015-09-06T12:01:33Z</time>
      </trkpt>
      <trkpt lat="48.17106599919498" lon="11.274710018187761">
        <ele>573</ele>
        <time>2015-09-06T12:01:36Z</time>
      </trkpt>
      <trkpt lat="48.170940019190311" lon="11.274734996259212">
        <ele>573</ele>
        <time>2015-09-06T12:01:40Z</time>
      </trkpt>
      <trkpt lat="48.170791994780302" lon="11.274672970175743">
        <ele>574</ele>
        <time>2015-09-06T12:01:44Z</time>
      </trkpt>
      <trkpt lat="48.170540034770966" lon="11.274378011003137">
        <ele>571</ele>
        <time>2015-09-06T12:01:54Z</time>
      </trkpt>
      <trkpt lat="48.170322021469474" lon="11.274060001596808">
        <ele>569</ele>
        <time>2015-09-06T12:02:03Z</time>
      </trkpt>
      <trkpt lat="48.170151030644774" lon="11.274037035182118">
        <ele>567</ele>
        <time>2015-09-06T12:02:08Z</time>
      </trkpt>
      <trkpt lat="48.170024966821074" lon="11.274038963019848">
        <ele>567</ele>
        <time>2015-09-06T12:02:12Z</time>
      </trkpt>
      <trkpt lat="48.169903010129929" lon="11.27417198382318">
        <ele>566</ele>
        <time>2015-09-06T12:02:16Z</time>
      </trkpt>
      <trkpt lat="48.169731013476849" lon="11.273958999663591">
        <ele>562</ele>
        <time>2015-09-06T12:02:23Z</time>
      </trkpt>
      <trkpt lat="48.169433958828449" lon="11.273532025516033">
        <ele>554</ele>
        <time>2015-09-06T12:02:35Z</time>
      </trkpt>
      <trkpt lat="48.169406969100237" lon="11.273387018591166">
        <ele>552</ele>
        <time>2015-09-06T12:02:39Z</time>
      </trkpt>
      <trkpt lat="48.169529009610415" lon="11.273016035556793">
        <ele>550</ele>
        <time>2015-09-06T12:02:47Z</time>
      </trkpt>
      <trkpt lat="48.169810976833105" lon="11.272741025313735">
        <ele>550</ele>
        <time>2015-09-06T12:02:57Z</time>
      </trkpt>
      <trkpt lat="48.170204004272819" lon="11.272572968155146">
        <ele>554</ele>
        <time>2015-09-06T12:03:09Z</time>
      </trkpt>
      <trkpt lat="48.170364014804363" lon="11.27277203835547">
        <ele>556</ele>
        <time>2015-09-06T12:03:15Z</time>
      </trkpt>
      <trkpt lat="48.170467028394341" lon="11.272758962586522">
        <ele>557</ele>
        <time>2015-09-06T12:03:19Z</time>
      </trkpt>
      <trkpt lat="48.170691998675466" lon="11.272385967895389">
        <ele>555</ele>
        <time>2015-09-06T12:03:29Z</time>
      </trkpt>
      <trkpt lat="48.171236403286457" lon="11.272144317626953">
        <ele>540</ele>
        <time>2015-09-06T12:03:46Z</time>
      </trkpt>
      <trkpt lat="48.172016758471727" lon="11.272439695894718">
        <ele>558</ele>
        <time>2015-09-06T12:04:10Z</time>
      </trkpt>
      <trkpt lat="48.171653570607305" lon="11.266900766640902">
        <ele>526</ele>
        <time>2015-09-06T12:06:01Z</time>
      </trkpt>
      <trkpt lat="48.17134503275156" lon="11.267260015010834">
        <ele>533</ele>
        <time>2015-09-06T12:06:13Z</time>
      </trkpt>
      <trkpt lat="48.171004978939891" lon="11.268651997670531">
        <ele>537</ele>
        <time>2015-09-06T12:06:43Z</time>
      </trkpt>
      <trkpt lat="48.170901965349913" lon="11.268823994323611">
        <ele>538</ele>
        <time>2015-09-06T12:06:48Z</time>
      </trkpt>
      <trkpt lat="48.170691998675466" lon="11.269016023725271">
        <ele>538</ele>
        <time>2015-09-06T12:06:55Z</time>
      </trkpt>
      <trkpt lat="48.170479014515877" lon="11.269091963768005">
        <ele>539</ele>
        <time>2015-09-06T12:07:02Z</time>
      </trkpt>
      <trkpt lat="48.170199980959296" lon="11.269078971818089">
        <ele>540</ele>
        <time>2015-09-06T12:07:10Z</time>
      </trkpt>
      <trkpt lat="48.16997098736465" lon="11.269105039536953">
        <ele>542</ele>
        <time>2015-09-06T12:07:17Z</time>
      </trkpt>
      <trkpt lat="48.169704023748636" lon="11.269297990947962">
        <ele>546</ele>
        <time>2015-09-06T12:07:26Z</time>
      </trkpt>
      <trkpt lat="48.169597992673516" lon="11.269200006499887">
        <ele>548</ele>
        <time>2015-09-06T12:07:29Z</time>
      </trkpt>
      <trkpt lat="48.169467989355326" lon="11.269137980416417">
        <ele>551</ele>
        <time>2015-09-06T12:07:34Z</time>
      </trkpt>
      <trkpt lat="48.169364975765347" lon="11.269236970692873">
        <ele>553</ele>
        <time>2015-09-06T12:07:37Z</time>
      </trkpt>
      <trkpt lat="48.169337986037135" lon="11.2690369784832">
        <ele>554</ele>
        <time>2015-09-06T12:07:41Z</time>
      </trkpt>
      <trkpt lat="48.169467989355326" lon="11.268696002662182">
        <ele>555</ele>
        <time>2015-09-06T12:07:49Z</time>
      </trkpt>
      <trkpt lat="48.169144028797746" lon="11.268049003556371">
        <ele>562</ele>
        <time>2015-09-06T12:08:05Z</time>
      </trkpt>
      <trkpt lat="48.16887304186821" lon="11.267673997208476">
        <ele>567</ele>
        <time>2015-09-06T12:08:16Z</time>
      </trkpt>
      <trkpt lat="48.168766004964709" lon="11.26755103468895">
        <ele>568</ele>
        <time>2015-09-06T12:08:21Z</time>
      </trkpt>
      <trkpt lat="48.168335007503629" lon="11.267375014722347">
        <ele>572</ele>
        <time>2015-09-06T12:08:34Z</time>
      </trkpt>
      <trkpt lat="48.167908033356071" lon="11.267258003354073">
        <ele>576</ele>
        <time>2015-09-06T12:08:47Z</time>
      </trkpt>
      <trkpt lat="48.16780099645257" lon="11.267247023060918">
        <ele>576</ele>
        <time>2015-09-06T12:08:50Z</time>
      </trkpt>
      <trkpt lat="48.165890006348491" lon="11.266832035034895">
        <ele>580</ele>
        <time>2015-09-06T12:09:48Z</time>
      </trkpt>
      <trkpt lat="48.16561097279191" lon="11.266855001449585">
        <ele>579</ele>
        <time>2015-09-06T12:09:57Z</time>
      </trkpt>
      <trkpt lat="48.165218029171228" lon="11.266767997294664">
        <ele>577</ele>
        <time>2015-09-06T12:10:09Z</time>
      </trkpt>
      <trkpt lat="48.164924997836351" lon="11.265585981309414">
        <ele>573</ele>
        <time>2015-09-06T12:10:34Z</time>
      </trkpt>
      <trkpt lat="48.166043227538466" lon="11.264161728322506">
        <ele>562</ele>
        <time>2015-09-06T12:11:18Z</time>
      </trkpt>
      <trkpt lat="48.167046038433909" lon="11.262542009353638">
        <ele>559</ele>
        <time>2015-09-06T12:12:02Z</time>
      </trkpt>
      <trkpt lat="48.167567979544401" lon="11.262384010478854">
        <ele>557</ele>
        <time>2015-09-06T12:12:18Z</time>
      </trkpt>
      <trkpt lat="48.168095033615828" lon="11.262000035494566">
        <ele>554</ele>
        <time>2015-09-06T12:12:36Z</time>
      </trkpt>
      <trkpt lat="48.168396027758718" lon="11.262262975797057">
        <ele>553</ele>
        <time>2015-09-06T12:12:46Z</time>
      </trkpt>
      <trkpt lat="48.169035483151674" lon="11.264365827664733">
        <ele>560</ele>
        <time>2015-09-06T12:13:33Z</time>
      </trkpt>
      <trkpt lat="48.169508138671517" lon="11.264604041352868">
        <ele>560</ele>
        <time>2015-09-06T12:13:48Z</time>
      </trkpt>
      <trkpt lat="48.170667020604014" lon="11.263239802792668">
        <ele>537</ele>
        <time>2015-09-06T12:14:32Z</time>
      </trkpt>
      <trkpt lat="48.171018054708838" lon="11.263663675636053">
        <ele>537</ele>
        <time>2015-09-06T12:14:46Z</time>
      </trkpt>
      <trkpt lat="48.170701386407018" lon="11.262197932228446">
        <ele>545</ele>
        <time>2015-09-06T12:15:16Z</time>
      </trkpt>
      <trkpt lat="48.171272780746222" lon="11.261853016912937">
        <ele>545</ele>
        <time>2015-09-06T12:15:35Z</time>
      </trkpt>
      <trkpt lat="48.171119978651404" lon="11.260271016508341">
        <ele>547</ele>
        <time>2015-09-06T12:16:07Z</time>
      </trkpt>
      <trkpt lat="48.170567024499178" lon="11.258290037512779">
        <ele>559</ele>
        <time>2015-09-06T12:16:50Z</time>
      </trkpt>
      <trkpt lat="48.170494018122554" lon="11.257860967889428">
        <ele>560</ele>
        <time>2015-09-06T12:16:59Z</time>
      </trkpt>
      <trkpt lat="48.170325960963964" lon="11.257340032607317">
        <ele>561</ele>
        <time>2015-09-06T12:17:11Z</time>
      </trkpt>
      <trkpt lat="48.170340964570642" lon="11.256318027153611">
        <ele>560</ele>
        <time>2015-09-06T12:17:31Z</time>
      </trkpt>
      <trkpt lat="48.170105013996363" lon="11.255371039733291">
        <ele>564</ele>
        <time>2015-09-06T12:17:51Z</time>
      </trkpt>
      <trkpt lat="48.169994037598372" lon="11.254522036761045">
        <ele>566</ele>
        <time>2015-09-06T12:18:09Z</time>
      </trkpt>
      <trkpt lat="48.169846013188362" lon="11.253883000463247">
        <ele>565</ele>
        <time>2015-09-06T12:18:22Z</time>
      </trkpt>
      <trkpt lat="48.169834027066827" lon="11.253614025190473">
        <ele>564</ele>
        <time>2015-09-06T12:18:28Z</time>
      </trkpt>
      <trkpt lat="48.169491039589047" lon="11.25244902446866">
        <ele>560</ele>
        <time>2015-09-06T12:18:53Z</time>
      </trkpt>
      <trkpt lat="48.168957028537989" lon="11.251498013734818">
        <ele>562</ele>
        <time>2015-09-06T12:19:18Z</time>
      </trkpt>
      <trkpt lat="48.168427040800452" lon="11.251159971579909">
        <ele>565</ele>
        <time>2015-09-06T12:19:35Z</time>
      </trkpt>
      <trkpt lat="48.168318746611476" lon="11.250725872814655">
        <ele>567</ele>
        <time>2015-09-06T12:19:45Z</time>
      </trkpt>
      <trkpt lat="48.168082963675261" lon="11.250467039644718">
        <ele>565</ele>
        <time>2015-09-06T12:19:53Z</time>
      </trkpt>
      <trkpt lat="48.167696222662926" lon="11.250283475965261">
        <ele>565</ele>
        <time>2015-09-06T12:19:58Z</time>
      </trkpt>
      <trkpt lat="48.167463541030884" lon="11.249905619770288">
        <ele>566</ele>
        <time>2015-09-06T12:20:01Z</time>
      </trkpt>
      <trkpt lat="48.167161708697677" lon="11.248873388394713">
        <ele>566</ele>
        <time>2015-09-06T12:20:07Z</time>
      </trkpt>
      <trkpt lat="48.167017120867968" lon="11.249030046164989">
        <ele>563</ele>
        <time>2015-09-06T12:20:27Z</time>
      </trkpt>
      <trkpt lat="48.166266269981861" lon="11.248902892693877">
        <ele>566</ele>
        <time>2015-09-06T12:20:38Z</time>
      </trkpt>
      <trkpt lat="48.166083879768848" lon="11.249050330370665">
        <ele>565</ele>
        <time>2015-09-06T12:20:54Z</time>
      </trkpt>
      <trkpt lat="48.165860921144485" lon="11.248760316520929">
        <ele>566</ele>
        <time>2015-09-06T12:21:15Z</time>
      </trkpt>
      <trkpt lat="48.16389100626111" lon="11.247942997142673">
        <ele>574</ele>
        <time>2015-09-06T12:22:17Z</time>
      </trkpt>
      <trkpt lat="48.163627982139587" lon="11.247757002711296">
        <ele>576</ele>
        <time>2015-09-06T12:22:25Z</time>
      </trkpt>
      <trkpt lat="48.162308000028133" lon="11.247025011107326">
        <ele>579</ele>
        <time>2015-09-06T12:23:08Z</time>
      </trkpt>
      <trkpt lat="48.162025026977062" lon="11.24671102501452">
        <ele>581</ele>
        <time>2015-09-06T12:23:18Z</time>
      </trkpt>
      <trkpt lat="48.161944979801774" lon="11.246552020311356">
        <ele>581</ele>
        <time>2015-09-06T12:23:22Z</time>
      </trkpt>
      <trkpt lat="48.162032989785075" lon="11.246523018926382">
        <ele>581</ele>
        <time>2015-09-06T12:23:25Z</time>
      </trkpt>
      <trkpt lat="48.164576981216669" lon="11.248014997690916">
        <ele>572</ele>
        <time>2015-09-06T12:24:47Z</time>
      </trkpt>
      <trkpt lat="48.165626982226968" lon="11.248296964913607">
        <ele>567</ele>
        <time>2015-09-06T12:25:19Z</time>
      </trkpt>
      <trkpt lat="48.165718009695411" lon="11.248272992670536">
        <ele>566</ele>
        <time>2015-09-06T12:25:22Z</time>
      </trkpt>
      <trkpt lat="48.165599992498755" lon="11.248167967423797">
        <ele>566</ele>
        <time>2015-09-06T12:25:26Z</time>
      </trkpt>
      <trkpt lat="48.162551997229457" lon="11.245887000113726">
        <ele>576</ele>
        <time>2015-09-06T12:27:08Z</time>
      </trkpt>
      <trkpt lat="48.162956004962325" lon="11.243853969499469">
        <ele>560</ele>
        <time>2015-09-06T12:27:51Z</time>
      </trkpt>
      <trkpt lat="48.163249958306551" lon="11.243968969210982">
        <ele>556</ele>
        <time>2015-09-06T12:28:00Z</time>
      </trkpt>
      <trkpt lat="48.163810959085822" lon="11.243648026138544">
        <ele>540</ele>
        <time>2015-09-06T12:28:18Z</time>
      </trkpt>
      <trkpt lat="48.163433019071817" lon="11.242989962920547">
        <ele>537</ele>
        <time>2015-09-06T12:28:36Z</time>
      </trkpt>
      <trkpt lat="48.162890961393714" lon="11.242231987416744">
        <ele>533</ele>
        <time>2015-09-06T12:28:58Z</time>
      </trkpt>
      <trkpt lat="48.162185959517956" lon="11.241764025762677">
        <ele>536</ele>
        <time>2015-09-06T12:29:21Z</time>
      </trkpt>
      <trkpt lat="48.16191497258842" lon="11.241394970566034">
        <ele>537</ele>
        <time>2015-09-06T12:29:32Z</time>
      </trkpt>
      <trkpt lat="48.160244040191174" lon="11.240412024781108">
        <ele>541</ele>
        <time>2015-09-06T12:30:26Z</time>
      </trkpt>
      <trkpt lat="48.159266961738467" lon="11.239894023165107">
        <ele>540</ele>
        <time>2015-09-06T12:30:57Z</time>
      </trkpt>
      <trkpt lat="48.157569961622357" lon="11.237175017595291">
        <ele>539</ele>
        <time>2015-09-06T12:32:12Z</time>
      </trkpt>
      <trkpt lat="48.157542971894145" lon="11.237006038427353">
        <ele>539</ele>
        <time>2015-09-06T12:32:15Z</time>
      </trkpt>
      <trkpt lat="48.156658010557294" lon="11.23534600250423">
        <ele>542</ele>
        <time>2015-09-06T12:32:58Z</time>
      </trkpt>
      <trkpt lat="48.156067002564669" lon="11.23446699231863">
        <ele>544</ele>
        <time>2015-09-06T12:33:23Z</time>
      </trkpt>
      <trkpt lat="48.155372980982065" lon="11.233054976910353">
        <ele>539</ele>
        <time>2015-09-06T12:33:58Z</time>
      </trkpt>
      <trkpt lat="48.15506000071764" lon="11.232649041339755">
        <ele>538</ele>
        <time>2015-09-06T12:34:11Z</time>
      </trkpt>
      <trkpt lat="48.155003003776073" lon="11.23249095864594">
        <ele>538</ele>
        <time>2015-09-06T12:34:14Z</time>
      </trkpt>
      <trkpt lat="48.153602974489331" lon="11.230248967185616">
        <ele>540</ele>
        <time>2015-09-06T12:35:16Z</time>
      </trkpt>
      <trkpt lat="48.150023985654116" lon="11.223803032189608">
        <ele>530</ele>
        <time>2015-09-06T12:38:04Z</time>
      </trkpt>
      <trkpt lat="48.14537001773715" lon="11.218655034899712">
        <ele>526</ele>
        <time>2015-09-06T12:40:58Z</time>
      </trkpt>
      <trkpt lat="48.142245998606086" lon="11.217214018106461">
        <ele>529</ele>
        <time>2015-09-06T12:42:36Z</time>
      </trkpt>
      <trkpt lat="48.142127981409431" lon="11.217209994792938">
        <ele>529</ele>
        <time>2015-09-06T12:42:40Z</time>
      </trkpt>
      <trkpt lat="48.140251021832228" lon="11.217543007805943">
        <ele>532</ele>
        <time>2015-09-06T12:43:36Z</time>
      </trkpt>
      <trkpt lat="48.138683019205928" lon="11.218041982501745">
        <ele>535</ele>
        <time>2015-09-06T12:44:25Z</time>
      </trkpt>
      <trkpt lat="48.136374978348613" lon="11.21740797534585">
        <ele>549</ele>
        <time>2015-09-06T12:45:35Z</time>
      </trkpt>
      <trkpt lat="48.135782545432448" lon="11.217772252857685">
        <ele>577</ele>
        <time>2015-09-06T12:46:37Z</time>
      </trkpt>
      <trkpt lat="48.134869085624814" lon="11.217394396662712">
        <ele>587</ele>
        <time>2015-09-06T12:46:57Z</time>
      </trkpt>
      <trkpt lat="48.133988734334707" lon="11.218039551749825">
        <ele>590</ele>
        <time>2015-09-06T12:47:06Z</time>
      </trkpt>
      <trkpt lat="48.133504595607519" lon="11.218140888959169">
        <ele>591</ele>
        <time>2015-09-06T12:47:10Z</time>
      </trkpt>
      <trkpt lat="48.133250959217548" lon="11.218586973845959">
        <ele>593</ele>
        <time>2015-09-06T12:47:14Z</time>
      </trkpt>
      <trkpt lat="48.133155992254615" lon="11.218729969114065">
        <ele>596</ele>
        <time>2015-09-06T12:47:18Z</time>
      </trkpt>
      <trkpt lat="48.133049039170146" lon="11.218828959390521">
        <ele>598</ele>
        <time>2015-09-06T12:47:22Z</time>
      </trkpt>
      <trkpt lat="48.132932363077998" lon="11.219357438385487">
        <ele>603</ele>
        <time>2015-09-06T12:47:31Z</time>
      </trkpt>
      <trkpt lat="48.132667997851968" lon="11.220324961468577">
        <ele>610</ele>
        <time>2015-09-06T12:47:55Z</time>
      </trkpt>
      <trkpt lat="48.132262984290719" lon="11.22114697471261">
        <ele>613</ele>
        <time>2015-09-06T12:48:15Z</time>
      </trkpt>
      <trkpt lat="48.132183020934463" lon="11.221781987696886">
        <ele>613</ele>
        <time>2015-09-06T12:48:28Z</time>
      </trkpt>
    </trkseg>
  </trk>

</gpx>